Phuket International Airport
VTSP : now visible

Airfield :











YOU CAN JOIN US ON...

 
LOGIN :

Register | Disclaimer

   EN    FR    IT 

 









Legend :    VFR   Marginal VFR   IFR   Intensive IFR   Very Intensive IFR
Visi :
Ceiling :
>= 8 km
>= 3000ft
5 to 8 km
1000 to 3000 ft
1500m to 5 km
500 to 1000 ft
800 to 1500m
200 to 500 ft
< 800m
< 200 ft
Symbols :   Thunderstorms  Fog  Heavy snow  Heavy precipitations  Wind > 20 kt






- Airport Elevation : 82 ft
- IATA code : HKT


VTSP - Phuket International

CURRENT METAR :
  • 260600Z 09006KT 010V140 9999 FEW020 35/25 Q1008 NOSIG

EXPIRED METARs :
  • 260530Z 08005KT 360V140 9999 FEW020 34/25 Q1009 NOSIG
  • 260500Z 08004KT 360V130 9999 FEW020 34/26 Q1009 NOSIG
  • 260430Z 10005KT 040V140 9999 FEW020 33/26 Q1009 NOSIG
  • 260400Z 08005KT 040V110 9999 FEW020 33/27 Q1009 NOSIG
  • 260330Z 08006KT 040V110 9999 FEW020 32/28 Q1009 NOSIG
  • 260300Z 08007KT 9999 FEW020 32/28 Q1009 NOSIG
  • 260230Z 09008KT 9999 FEW020 31/28 Q1009 NOSIG
  • 260200Z 09009KT 9999 FEW020 31/28 Q1009 NOSIG
  • 260130Z 09010KT 9999 FEW020 30/28 Q1009 NOSIG

TAF TAF VTSP
Valid from the 26 at 06:00 until the 27 at 12:00 UTC


260500Z 2606/2712 10005KT 9999 SCT020
BECMG 2607/2609 28005KT
BECMG 2612/2614 10005KT
BECMG 2706/2708 28005KT
VTBB FIR / Asia



MET'MAP, your aeronautical weather chart ! - Copyright ORBIFLY December 2007 - Disclaimer

ORBIFLY MET'MAP TEAM :

Programming & Development : Alexandra Zaïnal
Original concept : Baudouin d'Aumeries
Technical & hardware support : Manuel Goepfert
Assistance : Marc-Olivier Méhu




SOURCES & CREDITS :

   NOAA       Earth
Advisory